createdAt,value
2019-02-14T00:00:12.550Z,70.78
2019-02-14T00:02:43.447Z,70.79
2019-02-14T00:05:16.425Z,70.79
2019-02-14T00:07:44.752Z,70.73
2019-02-14T00:10:13.951Z,70.66
2019-02-14T00:12:43.204Z,70.66
2019-02-14T00:15:13.679Z,70.68
2019-02-14T00:17:43.055Z,70.57
2019-02-14T00:20:12.268Z,70.55
2019-02-14T00:22:41.542Z,70.67
2019-02-14T00:25:11.046Z,70.90
2019-02-14T00:27:40.297Z,70.94
2019-02-14T00:30:10.594Z,70.96
2019-02-14T00:32:39.806Z,70.99
2019-02-14T00:35:09.050Z,71.07
2019-02-14T00:37:38.250Z,71.08
2019-02-14T00:40:10.467Z,71.08
2019-02-14T00:42:39.693Z,71.13
2019-02-14T00:45:09.055Z,71.24
2019-02-14T00:47:38.307Z,71.26
2019-02-14T00:50:08.113Z,71.26
2019-02-14T00:52:37.363Z,71.30
2019-02-14T00:55:06.773Z,71.36
2019-02-14T00:57:35.973Z,71.36
2019-02-14T01:00:07.573Z,71.28
2019-02-14T01:02:36.914Z,71.27
2019-02-14T01:05:07.210Z,71.24
2019-02-14T01:07:36.483Z,71.38
2019-02-14T01:10:06.425Z,71.46
2019-02-14T01:12:35.667Z,71.55
2019-02-14T01:15:08.819Z,71.69
2019-02-14T01:17:38.077Z,71.85
2019-02-14T01:20:07.450Z,72.03
2019-02-14T01:22:36.644Z,72.13
2019-02-14T01:25:06.555Z,72.30
2019-02-14T01:27:35.792Z,72.45
2019-02-14T01:30:07.997Z,72.50
2019-02-14T01:32:37.255Z,72.70
2019-02-14T01:35:08.601Z,72.80
2019-02-14T01:37:37.859Z,72.93
2019-02-14T01:40:07.995Z,72.96
2019-02-14T01:42:37.315Z,72.95
2019-02-14T01:45:10.060Z,72.91
2019-02-14T01:47:39.397Z,72.79
2019-02-14T01:50:11.121Z,72.74
2019-02-14T01:52:40.618Z,72.76
2019-02-14T01:55:10.950Z,72.68
2019-02-14T01:57:40.299Z,72.74
2019-02-14T02:00:12.960Z,72.73
2019-02-14T02:02:42.158Z,72.73
2019-02-14T02:05:11.424Z,72.75
2019-02-14T02:07:40.695Z,72.73
2019-02-14T02:10:11.566Z,72.75
2019-02-14T02:12:40.791Z,72.55
2019-02-14T02:15:12.629Z,72.49
2019-02-14T02:17:41.885Z,72.51
2019-02-14T02:20:11.273Z,72.47
2019-02-14T02:22:41.600Z,72.52
2019-02-14T02:25:12.006Z,72.57
2019-02-14T02:27:41.269Z,72.48
2019-02-14T02:30:13.919Z,72.58
2019-02-14T02:32:43.202Z,72.61
2019-02-14T02:35:13.518Z,72.48
2019-02-14T02:37:42.794Z,72.50
2019-02-14T02:40:12.218Z,72.52
2019-02-14T02:42:41.494Z,72.56
2019-02-14T02:45:12.296Z,72.50
2019-02-14T02:47:41.501Z,72.51
2019-02-14T02:50:12.292Z,72.48
2019-02-14T02:52:41.555Z,72.52
2019-02-14T02:55:11.133Z,72.62
2019-02-14T02:57:40.391Z,72.62
2019-02-14T03:00:15.344Z,72.69
2019-02-14T03:02:44.549Z,72.82
2019-02-14T03:05:15.652Z,72.98
2019-02-14T03:07:44.858Z,73.16
2019-02-14T03:10:14.285Z,73.41
2019-02-14T03:12:43.481Z,73.68
2019-02-14T03:15:14.405Z,73.80
2019-02-14T03:17:43.605Z,74.06
2019-02-14T03:20:13.276Z,74.16
2019-02-14T03:22:42.488Z,74.32
2019-02-14T03:25:14.504Z,74.34
2019-02-14T03:27:44.860Z,74.43
2019-02-14T03:30:16.188Z,74.60
2019-02-14T03:32:45.391Z,74.61
2019-02-14T03:35:15.707Z,74.68
2019-02-14T03:37:44.969Z,74.74
2019-02-14T03:40:14.841Z,74.71
2019-02-14T03:42:44.147Z,74.69
2019-02-14T03:45:17.506Z,74.74
2019-02-14T03:47:46.725Z,74.81
2019-02-14T03:50:16.092Z,74.83
2019-02-14T03:52:45.299Z,74.79
2019-02-14T03:55:14.535Z,74.79
2019-02-14T03:57:43.756Z,74.78
2019-02-14T04:00:15.631Z,74.82
2019-02-14T04:02:44.833Z,74.84
2019-02-14T04:05:14.126Z,74.87
2019-02-14T04:07:43.380Z,74.80
2019-02-14T04:10:13.984Z,74.80
2019-02-14T04:12:43.186Z,74.88
2019-02-14T04:15:15.706Z,74.88
2019-02-14T04:17:44.956Z,74.96
2019-02-14T04:20:14.178Z,74.92
2019-02-14T04:22:43.422Z,74.92
2019-02-14T04:25:12.881Z,75.09
2019-02-14T04:27:42.107Z,75.06
2019-02-14T04:30:12.720Z,75.17
2019-02-14T04:32:41.926Z,75.21
2019-02-14T04:35:11.150Z,75.16
2019-02-14T04:37:40.402Z,75.06
2019-02-14T04:40:11.660Z,75.09
2019-02-14T04:42:40.894Z,75.17
2019-02-14T04:45:11.460Z,75.17
2019-02-14T04:47:40.731Z,75.23
2019-02-14T04:50:11.620Z,75.23
2019-02-14T04:52:40.944Z,75.29
2019-02-14T04:55:23.029Z,75.39
2019-02-14T04:57:52.379Z,75.44
2019-02-14T05:00:21.581Z,75.47
2019-02-14T05:02:50.960Z,75.47
2019-02-14T05:05:20.198Z,75.46
2019-02-14T05:07:49.521Z,75.48
2019-02-14T05:10:18.715Z,75.46
2019-02-14T05:12:47.961Z,75.50
2019-02-14T05:15:17.278Z,75.48
2019-02-14T05:17:46.546Z,75.60
2019-02-14T05:20:15.804Z,75.65
2019-02-14T05:22:45.632Z,75.73
2019-02-14T05:25:14.835Z,75.82
2019-02-14T05:27:44.088Z,75.92
2019-02-14T05:30:17.972Z,75.99
2019-02-14T05:32:48.125Z,76.38
2019-02-14T05:35:17.370Z,76.47
2019-02-14T05:37:46.809Z,76.47
2019-02-14T05:40:17.184Z,76.55
2019-02-14T05:42:46.440Z,76.55
2019-02-14T05:45:15.676Z,76.55
2019-02-14T05:47:44.927Z,76.68
2019-02-14T05:50:14.822Z,76.76
2019-02-14T05:52:44.071Z,76.77
2019-02-14T05:55:13.346Z,76.80
2019-02-14T05:57:42.550Z,76.88
2019-02-14T06:00:16.759Z,76.95
2019-02-14T06:02:46.131Z,77.05
2019-02-14T06:05:15.328Z,77.16
2019-02-14T06:07:44.574Z,77.28
2019-02-14T06:10:13.775Z,77.48
2019-02-14T06:12:43.072Z,77.47
2019-02-14T06:15:13.144Z,77.47
2019-02-14T06:17:42.356Z,77.52
2019-02-14T06:20:12.356Z,77.64
2019-02-14T06:22:41.602Z,77.66
2019-02-14T06:25:12.544Z,77.69
2019-02-14T06:27:41.821Z,77.71
2019-02-14T06:30:15.949Z,77.71
2019-02-14T06:32:45.205Z,77.70
2019-02-14T06:35:14.462Z,77.71
2019-02-14T06:37:43.671Z,77.73
2019-02-14T06:40:13.987Z,77.69
2019-02-14T06:42:43.243Z,77.68
2019-02-14T06:45:14.288Z,77.67
2019-02-14T06:47:43.659Z,77.66
2019-02-14T06:50:13.013Z,77.57
2019-02-14T06:52:42.260Z,77.50
2019-02-14T06:55:11.491Z,77.45
2019-02-14T06:57:40.740Z,77.40
2019-02-14T07:00:30.982Z,77.44
2019-02-14T07:03:00.205Z,77.39
2019-02-14T07:05:29.467Z,77.24
2019-02-14T07:07:58.709Z,77.08
2019-02-14T07:10:27.921Z,76.90
2019-02-14T07:12:57.168Z,76.75
2019-02-14T07:15:26.371Z,76.55
2019-02-14T07:17:55.689Z,76.33
2019-02-14T07:20:24.904Z,75.96
2019-02-14T07:22:54.165Z,75.61
2019-02-14T07:25:23.354Z,75.30
2019-02-14T07:27:52.624Z,74.98
2019-02-14T07:30:24.160Z,74.52
2019-02-14T07:32:53.512Z,74.10
2019-02-14T07:35:22.709Z,73.32
2019-02-14T07:37:52.046Z,73.00
2019-02-14T07:40:21.264Z,72.70
2019-02-14T07:42:50.537Z,72.49
2019-02-14T07:45:19.814Z,72.54
2019-02-14T07:47:49.001Z,72.34
2019-02-14T07:50:18.206Z,72.00
2019-02-14T07:52:47.469Z,71.96
2019-02-14T07:55:16.729Z,71.62
2019-02-14T07:57:45.986Z,71.49
2019-02-14T08:00:19.347Z,71.11
2019-02-14T08:02:48.564Z,70.79
2019-02-14T08:05:17.895Z,70.32
2019-02-14T08:07:47.137Z,70.14
2019-02-14T08:10:17.381Z,69.75
2019-02-14T08:12:46.623Z,69.63
2019-02-14T08:15:15.886Z,69.06
2019-02-14T08:17:45.151Z,68.60
2019-02-14T08:20:16.744Z,68.18
2019-02-14T08:22:45.977Z,68.43
2019-02-14T08:25:15.231Z,67.99
2019-02-14T08:27:44.437Z,67.97
2019-02-14T08:30:18.992Z,67.65
2019-02-14T08:32:48.246Z,67.58
2019-02-14T08:35:18.135Z,67.40
2019-02-14T08:37:47.354Z,66.90
2019-02-14T08:40:30.942Z,66.61
2019-02-14T08:43:00.149Z,66.68
2019-02-14T08:45:29.408Z,66.51
2019-02-14T08:47:58.604Z,65.83
2019-02-14T08:50:27.861Z,65.35
2019-02-14T08:52:57.056Z,64.54
2019-02-14T08:55:26.255Z,64.93
2019-02-14T08:57:55.599Z,65.07
2019-02-14T09:00:24.801Z,64.76
2019-02-14T09:02:54.041Z,65.04
2019-02-14T09:05:23.321Z,64.82
2019-02-14T09:07:54.931Z,64.41
2019-02-14T09:10:23.602Z,64.48
2019-02-14T09:12:52.838Z,64.57
2019-02-14T09:15:22.201Z,64.47
2019-02-14T09:17:51.456Z,64.32
2019-02-14T09:20:21.788Z,64.02
2019-02-14T09:22:51.995Z,63.81
2019-02-14T09:25:21.193Z,63.16
2019-02-14T09:27:50.400Z,63.28
2019-02-14T09:30:19.683Z,62.96
2019-02-14T09:32:49.039Z,62.54
2019-02-14T09:35:18.349Z,62.02
2019-02-14T09:37:47.598Z,62.34
2019-02-14T09:40:18.096Z,62.35
2019-02-14T09:42:47.301Z,62.40
2019-02-14T09:45:16.559Z,62.53
2019-02-14T09:47:45.757Z,62.53
2019-02-14T09:50:15.537Z,62.40
2019-02-14T09:52:44.741Z,61.95
2019-02-14T09:55:14.481Z,61.61
2019-02-14T09:57:43.694Z,61.48
2019-02-14T10:00:15.604Z,61.19
2019-02-14T10:02:44.912Z,60.57
2019-02-14T10:05:15.131Z,60.34
2019-02-14T10:07:44.443Z,60.33
2019-02-14T10:10:21.053Z,60.29
2019-02-14T10:12:50.281Z,60.03
2019-02-14T10:15:19.533Z,59.46
2019-02-14T10:17:49.059Z,59.17
2019-02-14T10:20:18.676Z,58.90
2019-02-14T10:22:47.877Z,58.68
2019-02-14T10:25:17.121Z,58.20
2019-02-14T10:27:46.396Z,58.16
2019-02-14T10:30:20.778Z,58.12
2019-02-14T10:32:51.854Z,58.29
2019-02-14T10:35:21.120Z,58.06
2019-02-14T10:37:50.358Z,57.80
2019-02-14T10:40:19.624Z,57.59
2019-02-14T10:42:48.856Z,57.09
2019-02-14T10:45:20.604Z,56.51
2019-02-14T10:47:49.821Z,56.51
2019-02-14T10:50:20.263Z,56.69
2019-02-14T10:52:49.461Z,56.33
2019-02-14T10:55:18.717Z,55.94
2019-02-14T10:57:47.959Z,55.70
2019-02-14T11:00:20.161Z,55.52
2019-02-14T11:02:49.374Z,55.52
2019-02-14T11:05:18.766Z,54.87
2019-02-14T11:07:48.035Z,54.98
2019-02-14T11:10:17.560Z,55.13
2019-02-14T11:12:46.829Z,54.52
2019-02-14T11:15:19.387Z,54.26
2019-02-14T11:17:49.143Z,54.29
2019-02-14T11:20:19.599Z,54.42
2019-02-14T11:22:49.418Z,54.51
2019-02-14T11:25:31.092Z,54.09
2019-02-14T11:28:00.349Z,53.84
2019-02-14T11:30:29.573Z,53.62
2019-02-14T11:32:58.920Z,53.66
2019-02-14T11:35:28.166Z,53.18
2019-02-14T11:37:57.374Z,53.19
2019-02-14T11:40:26.670Z,53.25
2019-02-14T11:42:55.886Z,52.64
2019-02-14T11:45:25.778Z,53.15
2019-02-14T11:47:54.982Z,52.46
2019-02-14T11:50:24.553Z,52.82
2019-02-14T11:52:53.750Z,52.60
2019-02-14T11:55:23.070Z,52.84
2019-02-14T11:57:52.348Z,52.59
2019-02-14T12:00:24.313Z,52.03
2019-02-14T12:02:56.120Z,51.92
2019-02-14T12:05:24.534Z,51.78
2019-02-14T12:07:53.809Z,52.01
2019-02-14T12:10:23.067Z,51.79
2019-02-14T12:12:52.300Z,51.96
2019-02-14T12:15:23.285Z,51.82
2019-02-14T12:17:52.564Z,51.43
2019-02-14T12:20:21.905Z,51.10
2019-02-14T12:22:51.074Z,50.92
2019-02-14T12:25:25.518Z,50.34
2019-02-14T12:27:55.753Z,50.81
2019-02-14T12:30:25.116Z,50.03
2019-02-14T12:32:54.392Z,49.92
2019-02-14T12:35:23.587Z,49.58
2019-02-14T12:37:52.904Z,49.84
2019-02-14T12:40:22.235Z,50.00
2019-02-14T12:42:51.441Z,49.55
2019-02-14T12:45:26.234Z,49.12
2019-02-14T12:47:55.881Z,48.84
2019-02-14T12:50:25.427Z,48.97
2019-02-14T12:52:54.691Z,48.96
2019-02-14T12:55:24.057Z,48.96
2019-02-14T12:57:53.422Z,48.69
2019-02-14T13:00:23.956Z,48.32
2019-02-14T13:02:53.149Z,48.00
2019-02-14T13:05:22.353Z,47.42
2019-02-14T13:07:51.708Z,47.42
2019-02-14T13:10:20.913Z,46.53
2019-02-14T13:12:50.107Z,46.47
2019-02-14T13:15:24.339Z,46.27
2019-02-14T13:17:53.547Z,46.24
2019-02-14T13:20:22.862Z,46.26
2019-02-14T13:22:52.105Z,46.05
2019-02-14T13:25:21.335Z,45.66
2019-02-14T13:27:50.533Z,46.01
2019-02-14T13:30:22.386Z,45.55
2019-02-14T13:32:51.781Z,45.54
2019-02-14T13:35:21.097Z,46.02
2019-02-14T13:37:50.343Z,46.10
2019-02-14T13:40:19.567Z,46.14
2019-02-14T13:42:48.806Z,45.71
2019-02-14T13:45:21.238Z,45.52
2019-02-14T13:47:50.474Z,46.08
2019-02-14T13:50:19.790Z,46.26
2019-02-14T13:52:49.066Z,46.61
2019-02-14T13:55:18.274Z,46.44
2019-02-14T13:57:47.480Z,46.81
2019-02-14T14:00:19.827Z,47.27
2019-02-14T14:02:49.093Z,47.44
2019-02-14T14:05:18.418Z,47.73
2019-02-14T14:07:47.719Z,47.86
2019-02-14T14:10:16.987Z,48.19
2019-02-14T14:12:46.984Z,48.52
2019-02-14T14:15:16.206Z,48.41
2019-02-14T14:17:45.417Z,48.59
2019-02-14T14:20:14.683Z,47.70
2019-02-14T14:22:44.355Z,47.70
2019-02-14T14:25:13.554Z,48.42
2019-02-14T14:27:42.787Z,48.71
2019-02-14T14:30:12.990Z,48.83
2019-02-14T14:32:42.238Z,48.88
2019-02-14T14:35:11.798Z,49.08
2019-02-14T14:37:41.356Z,49.19
2019-02-14T14:40:15.582Z,49.27
2019-02-14T14:42:52.358Z,49.20
2019-02-14T14:45:26.598Z,49.24
2019-02-14T14:47:55.835Z,49.27
2019-02-14T14:50:25.045Z,49.41
2019-02-14T14:52:55.790Z,49.07
2019-02-14T14:55:25.072Z,49.17
2019-02-14T14:57:54.331Z,49.19
2019-02-14T15:00:23.663Z,49.29
2019-02-14T15:02:52.975Z,49.16
2019-02-14T15:05:22.325Z,49.05
2019-02-14T15:07:51.598Z,49.14
2019-02-14T15:10:20.839Z,49.26
2019-02-14T15:12:50.026Z,49.24
2019-02-14T15:15:19.246Z,49.10
2019-02-14T15:17:48.493Z,49.21
2019-02-14T15:20:17.690Z,49.15
2019-02-14T15:22:46.931Z,49.17
2019-02-14T15:25:16.267Z,49.21
2019-02-14T15:27:45.563Z,49.10
2019-02-14T15:30:14.831Z,48.97
2019-02-14T15:32:44.080Z,48.94
2019-02-14T15:35:13.455Z,48.75
2019-02-14T15:37:44.568Z,48.83
2019-02-14T15:40:13.677Z,48.59
2019-02-14T15:42:42.937Z,48.93
2019-02-14T15:45:12.187Z,48.87
2019-02-14T15:47:41.398Z,48.98
2019-02-14T15:50:10.662Z,48.98
2019-02-14T15:52:39.894Z,49.03
2019-02-14T15:55:09.154Z,49.25
2019-02-14T15:57:40.492Z,49.35
2019-02-14T16:00:12.492Z,49.40
2019-02-14T16:02:41.699Z,49.63
2019-02-14T16:05:10.964Z,49.82
2019-02-14T16:07:41.448Z,49.91
2019-02-14T16:10:18.092Z,50.05
2019-02-14T16:12:44.009Z,50.21
2019-02-14T16:15:12.769Z,50.29
2019-02-14T16:17:43.502Z,50.46
2019-02-14T16:20:12.869Z,50.84
2019-02-14T16:22:44.000Z,50.83
2019-02-14T16:25:13.233Z,51.01
2019-02-14T16:27:42.479Z,51.14
2019-02-14T16:30:11.852Z,51.08
2019-02-14T16:32:41.106Z,51.20
2019-02-14T16:35:10.421Z,51.26
2019-02-14T16:37:39.622Z,51.21
2019-02-14T16:40:09.724Z,51.26
2019-02-14T16:42:38.942Z,51.32
2019-02-14T16:45:08.992Z,51.32
2019-02-14T16:47:38.205Z,51.31
2019-02-14T16:50:09.130Z,51.42
2019-02-14T16:52:38.509Z,51.63
2019-02-14T16:55:07.772Z,51.81
2019-02-14T16:57:37.136Z,51.98
2019-02-14T17:00:10.029Z,52.22
2019-02-14T17:02:39.476Z,52.39
2019-02-14T17:05:08.816Z,52.76
2019-02-14T17:07:38.018Z,52.87
2019-02-14T17:10:10.170Z,53.15
2019-02-14T17:12:39.537Z,53.91
2019-02-14T17:15:10.019Z,53.91
2019-02-14T17:17:39.311Z,53.92
2019-02-14T17:20:10.641Z,54.04
2019-02-14T17:22:40.073Z,54.17
2019-02-14T17:25:09.473Z,54.31
2019-02-14T17:27:38.880Z,54.41
2019-02-14T17:30:09.573Z,54.62
2019-02-14T17:32:38.943Z,54.71
2019-02-14T17:35:08.299Z,54.87
2019-02-14T17:37:37.499Z,54.97
2019-02-14T17:40:09.027Z,55.08
2019-02-14T17:42:39.285Z,55.24
2019-02-14T17:45:09.747Z,55.30
2019-02-14T17:47:38.943Z,55.26
2019-02-14T17:50:09.030Z,55.23
2019-02-14T17:52:38.413Z,55.23
2019-02-14T17:55:10.664Z,55.37
2019-02-14T17:57:40.027Z,55.52
2019-02-14T18:00:11.576Z,55.62
2019-02-14T18:02:40.900Z,55.86
2019-02-14T18:05:10.170Z,56.10
2019-02-14T18:07:39.517Z,56.14
2019-02-14T18:10:11.556Z,56.19
2019-02-14T18:12:40.754Z,56.39
2019-02-14T18:15:12.659Z,56.38
2019-02-14T18:17:42.947Z,56.67
2019-02-14T18:20:12.288Z,56.54
2019-02-14T18:22:41.624Z,56.70
2019-02-14T18:25:12.359Z,57.05
2019-02-14T18:27:41.835Z,57.20
2019-02-14T18:30:11.972Z,57.24
2019-02-14T18:32:41.317Z,57.33
2019-02-14T18:35:12.417Z,57.47
2019-02-14T18:37:41.759Z,57.72
2019-02-14T18:40:12.107Z,57.85
2019-02-14T18:42:46.604Z,58.21
2019-02-14T18:45:15.789Z,58.42
2019-02-14T18:47:45.242Z,58.62
2019-02-14T18:50:14.832Z,58.84
2019-02-14T18:52:45.418Z,59.04
2019-02-14T18:55:14.773Z,59.29
2019-02-14T18:57:44.092Z,59.56
2019-02-14T19:00:16.021Z,59.78
2019-02-14T19:02:45.468Z,60.01
2019-02-14T19:05:14.836Z,60.27
2019-02-14T19:07:44.173Z,60.47
2019-02-14T19:10:17.268Z,60.68
2019-02-14T19:12:46.629Z,60.83
2019-02-14T19:15:15.848Z,61.08
2019-02-14T19:17:45.266Z,61.32
2019-02-14T19:20:15.621Z,61.54
2019-02-14T19:22:44.948Z,61.70
2019-02-14T19:25:14.563Z,61.85
2019-02-14T19:27:45.015Z,62.07
2019-02-14T19:30:15.876Z,62.32
2019-02-14T19:32:45.214Z,62.38
2019-02-14T19:35:22.736Z,62.56
2019-02-14T19:37:45.874Z,62.79
2019-02-14T19:40:15.088Z,62.87
2019-02-14T19:42:44.464Z,63.05
2019-02-14T19:45:13.638Z,63.14
2019-02-14T19:47:42.922Z,63.34
2019-02-14T19:50:13.585Z,63.47
2019-02-14T19:52:43.178Z,63.69
2019-02-14T19:55:12.422Z,63.83
2019-02-14T19:57:41.624Z,63.93
2019-02-14T20:00:15.505Z,64.05
2019-02-14T20:02:44.740Z,64.20
2019-02-14T20:05:14.421Z,64.34
2019-02-14T20:07:43.834Z,64.50
2019-02-14T20:10:16.315Z,64.62
2019-02-14T20:12:45.619Z,64.85
2019-02-14T20:15:17.105Z,64.90
2019-02-14T20:17:46.365Z,65.04
2019-02-14T20:20:15.751Z,65.13
2019-02-14T20:22:45.011Z,65.31
2019-02-14T20:25:28.952Z,65.49
2019-02-14T20:27:58.204Z,65.61
2019-02-14T20:30:27.447Z,65.74
2019-02-14T20:33:04.346Z,65.89
2019-02-14T20:35:27.755Z,66.03
2019-02-14T20:37:57.096Z,66.16
2019-02-14T20:40:26.465Z,66.23
2019-02-14T20:42:55.683Z,66.26
2019-02-14T20:45:25.275Z,66.32
2019-02-14T20:47:56.950Z,66.42
2019-02-14T20:50:25.572Z,66.54
2019-02-14T20:52:54.857Z,66.54
2019-02-14T20:55:25.975Z,66.60
2019-02-14T20:57:55.304Z,66.71
2019-02-14T21:00:35.413Z,66.79
2019-02-14T21:03:04.606Z,66.80
2019-02-14T21:05:33.948Z,66.81
2019-02-14T21:08:03.151Z,66.79
2019-02-14T21:10:32.471Z,66.80
2019-02-14T21:13:01.883Z,66.84
2019-02-14T21:15:31.379Z,66.96
2019-02-14T21:18:00.773Z,67.00
2019-02-14T21:20:30.094Z,67.03
2019-02-14T21:22:59.293Z,67.12
2019-02-14T21:25:28.609Z,67.17
2019-02-14T21:27:57.860Z,67.26
2019-02-14T21:30:27.073Z,67.37
2019-02-14T21:32:56.450Z,67.48
2019-02-14T21:35:25.770Z,67.52
2019-02-14T21:37:55.106Z,67.54
2019-02-14T21:40:24.397Z,67.60
2019-02-14T21:42:53.656Z,67.71
2019-02-14T21:45:22.913Z,67.75
2019-02-14T21:47:52.115Z,67.78
2019-02-14T21:50:21.396Z,67.82
2019-02-14T21:52:50.604Z,67.85
2019-02-14T21:55:19.839Z,67.96
2019-02-14T21:57:49.050Z,68.02
2019-02-14T22:00:29.338Z,67.99
2019-02-14T22:02:58.626Z,67.98
2019-02-14T22:05:27.851Z,68.01
2019-02-14T22:07:57.095Z,68.04
2019-02-14T22:10:26.389Z,68.14
2019-02-14T22:12:57.041Z,68.27
2019-02-14T22:15:28.554Z,68.41
2019-02-14T22:17:57.793Z,68.44
2019-02-14T22:20:27.074Z,68.58
2019-02-14T22:22:56.344Z,68.56
2019-02-14T22:25:26.706Z,68.67
2019-02-14T22:27:55.912Z,68.74
2019-02-14T22:30:25.162Z,68.92
2019-02-14T22:32:54.365Z,69.08
2019-02-14T22:35:23.695Z,69.15
2019-02-14T22:37:52.913Z,69.19
2019-02-14T22:40:22.207Z,69.24
2019-02-14T22:42:51.524Z,69.27
2019-02-14T22:45:20.825Z,69.29
2019-02-14T22:47:50.060Z,69.34
2019-02-14T22:50:19.305Z,69.33
2019-02-14T22:52:48.503Z,69.25
2019-02-14T22:55:17.770Z,69.21
2019-02-14T22:57:47.052Z,69.04
2019-02-14T23:00:33.072Z,69.04
2019-02-14T23:03:02.418Z,69.08
2019-02-14T23:05:31.689Z,69.01
2019-02-14T23:08:00.933Z,69.10
2019-02-14T23:10:30.185Z,69.17
2019-02-14T23:12:59.409Z,69.28
2019-02-14T23:15:28.673Z,69.40
2019-02-14T23:17:57.867Z,69.57
2019-02-14T23:20:27.125Z,69.76
2019-02-14T23:22:56.349Z,69.84
2019-02-14T23:25:25.610Z,69.98
2019-02-14T23:27:54.807Z,70.10
2019-02-14T23:30:25.131Z,70.23
2019-02-14T23:32:54.416Z,70.31
2019-02-14T23:35:23.671Z,70.38
2019-02-14T23:37:52.874Z,70.43
2019-02-14T23:40:22.223Z,70.53
2019-02-14T23:42:51.475Z,70.62
2019-02-14T23:45:20.702Z,70.67
2019-02-14T23:47:49.976Z,70.76
2019-02-14T23:50:19.198Z,70.88
2019-02-14T23:52:48.723Z,70.94
2019-02-14T23:55:17.934Z,70.98
2019-02-14T23:57:47.202Z,71.06
